createdAt,value
2023-05-25T00:01:04.768Z,144682.44
2023-05-25T00:03:32.625Z,144597.63
2023-05-25T00:06:03.910Z,144658.19
2023-05-25T00:08:31.131Z,144653.34
2023-05-25T00:10:58.662Z,144626.69
2023-05-25T00:13:25.864Z,144604.88
2023-05-25T00:15:52.969Z,144648.50
2023-05-25T00:18:20.040Z,144607.31
2023-05-25T00:20:47.673Z,144578.22
2023-05-25T00:23:15.002Z,144594.00
2023-05-25T00:25:42.588Z,144587.94
2023-05-25T00:28:11.496Z,144573.38
2023-05-25T00:30:39.055Z,144570.97
2023-05-25T00:33:07.108Z,144554.00
2023-05-25T00:35:34.192Z,144505.59
2023-05-25T00:38:01.257Z,144558.84
2023-05-25T00:40:28.353Z,144524.97
2023-05-25T00:42:56.204Z,144459.56
2023-05-25T00:45:23.626Z,144521.34
2023-05-25T00:47:52.308Z,144419.66
2023-05-25T00:50:33.503Z,144504.38
2023-05-25T00:53:01.168Z,144478.97
2023-05-25T00:55:31.539Z,144498.31
2023-05-25T00:58:01.049Z,144416.00
2023-05-25T01:00:30.583Z,144357.91
2023-05-25T01:02:59.736Z,144445.06
2023-05-25T01:05:30.808Z,144452.34
2023-05-25T01:08:01.876Z,144394.22
2023-05-25T01:10:32.736Z,144413.56
2023-05-25T01:13:02.088Z,144428.09
2023-05-25T01:15:30.977Z,144439.00
2023-05-25T01:17:59.233Z,144424.50
2023-05-25T01:20:35.679Z,144413.56
2023-05-25T01:23:17.506Z,144413.56
2023-05-25T01:25:51.456Z,144348.25
2023-05-25T01:28:25.342Z,144403.91
2023-05-25T01:30:53.706Z,144388.19
2023-05-25T01:33:21.563Z,144338.56
2023-05-25T01:35:49.072Z,144357.91
2023-05-25T01:38:17.709Z,144338.56
2023-05-25T01:40:44.794Z,144385.75
2023-05-25T01:43:12.263Z,144359.09
2023-05-25T01:45:39.324Z,144379.69
2023-05-25T01:48:17.557Z,144379.69
2023-05-25T01:50:57.994Z,144359.09
2023-05-25T01:53:36.105Z,144355.47
2023-05-25T01:56:11.442Z,144355.47
2023-05-25T01:58:47.174Z,144354.28
2023-05-25T02:01:17.006Z,144232.06
2023-05-25T02:03:49.066Z,144326.44
2023-05-25T02:06:16.742Z,144297.44
2023-05-25T02:08:46.716Z,144343.41
2023-05-25T02:11:17.217Z,144365.19
2023-05-25T02:13:46.191Z,144331.28
2023-05-25T02:16:13.361Z,144316.78
2023-05-25T02:18:45.835Z,144331.28
2023-05-25T02:21:13.068Z,144311.94
2023-05-25T02:23:40.377Z,144317.97
2023-05-25T02:26:07.565Z,144294.97
2023-05-25T02:28:34.725Z,144304.66
2023-05-25T02:31:01.974Z,144232.06
2023-05-25T02:33:29.108Z,144267.16
2023-05-25T02:35:57.754Z,144232.06
2023-05-25T02:38:24.838Z,144261.13
2023-05-25T02:40:51.921Z,144261.13
2023-05-25T02:43:20.940Z,144230.88
2023-05-25T02:45:48.016Z,144258.69
2023-05-25T02:48:15.292Z,144246.56
2023-05-25T02:50:42.454Z,144234.50
2023-05-25T02:53:13.374Z,144222.41
2023-05-25T02:55:40.528Z,144244.19
2023-05-25T02:58:11.193Z,144246.56
2023-05-25T03:00:56.781Z,144236.91
2023-05-25T03:03:23.881Z,144232.06
2023-05-25T03:05:51.568Z,144211.53
2023-05-25T03:08:18.870Z,144194.56
2023-05-25T03:10:46.030Z,144192.13
2023-05-25T03:13:13.100Z,144215.16
2023-05-25T03:15:40.360Z,144212.72
2023-05-25T03:18:07.844Z,144222.41
2023-05-25T03:20:38.198Z,144227.22
2023-05-25T03:23:05.544Z,144229.66
2023-05-25T03:25:34.121Z,144192.13
2023-05-25T03:28:01.599Z,144192.13
2023-05-25T03:30:29.659Z,144184.91
2023-05-25T03:32:57.267Z,144200.63
2023-05-25T03:35:28.472Z,144190.94
2023-05-25T03:37:55.550Z,144130.50
2023-05-25T03:40:22.795Z,144152.25
2023-05-25T03:42:49.934Z,144190.94
2023-05-25T03:45:17.124Z,144190.94
2023-05-25T03:47:45.530Z,144176.44
2023-05-25T03:50:13.025Z,144197.03
2023-05-25T03:52:40.117Z,144164.31
2023-05-25T03:55:07.424Z,144200.63
2023-05-25T03:57:34.493Z,144201.84
2023-05-25T04:00:01.906Z,144157.09
2023-05-25T04:02:29.056Z,144093.00
2023-05-25T04:04:57.117Z,144229.66
2023-05-25T04:07:27.390Z,144209.09
2023-05-25T04:09:54.470Z,144212.72
2023-05-25T04:12:22.074Z,144161.94
2023-05-25T04:14:49.157Z,144192.13
2023-05-25T04:17:18.945Z,144210.28
2023-05-25T04:19:46.406Z,144210.28
2023-05-25T04:22:13.477Z,144233.31
2023-05-25T04:24:41.338Z,144217.56
2023-05-25T04:27:08.534Z,144245.38
2023-05-25T04:29:37.127Z,144242.97
2023-05-25T04:32:30.145Z,144331.28
2023-05-25T04:35:15.843Z,144328.88
2023-05-25T04:37:47.070Z,144367.59
2023-05-25T04:40:14.640Z,144299.81
2023-05-25T04:42:42.725Z,144411.19
2023-05-25T04:45:10.507Z,144382.09
2023-05-25T04:47:41.138Z,144382.09
2023-05-25T04:50:10.934Z,144509.22
2023-05-25T04:52:39.012Z,144518.88
2023-05-25T04:55:06.607Z,144428.09
2023-05-25T04:57:36.962Z,144508.00
2023-05-25T05:00:05.944Z,144549.19
2023-05-25T05:02:33.337Z,144575.81
2023-05-25T05:05:00.470Z,144569.78
2023-05-25T05:07:28.981Z,144614.56
2023-05-25T05:09:56.302Z,144633.97
2023-05-25T05:12:23.619Z,144658.19
2023-05-25T05:14:53.073Z,144687.28
2023-05-25T05:17:20.542Z,144751.53
2023-05-25T05:19:47.894Z,144795.13
2023-05-25T05:22:16.128Z,144814.50
2023-05-25T05:24:45.511Z,144759.97
2023-05-25T05:27:17.163Z,144837.56
2023-05-25T05:29:47.930Z,144869.06
2023-05-25T05:32:15.704Z,144915.16
2023-05-25T05:34:42.860Z,144926.03
2023-05-25T05:37:21.099Z,144932.09
2023-05-25T05:39:48.188Z,144959.97
2023-05-25T05:42:15.562Z,145023.03
2023-05-25T05:44:42.690Z,145118.84
2023-05-25T05:47:09.945Z,145138.31
2023-05-25T05:49:39.238Z,145174.69
2023-05-25T05:52:09.022Z,145150.41
2023-05-25T05:54:36.606Z,145245.06
2023-05-25T05:57:09.412Z,145198.94
2023-05-25T05:59:36.594Z,145349.47
2023-05-25T06:02:04.313Z,145355.53
2023-05-25T06:04:31.567Z,145382.25
2023-05-25T06:06:59.191Z,145376.19
2023-05-25T06:09:26.574Z,145391.97
2023-05-25T06:11:56.017Z,145434.47
2023-05-25T06:14:23.153Z,145519.47
2023-05-25T06:16:51.153Z,145407.75
2023-05-25T06:19:18.575Z,145524.31
2023-05-25T06:21:46.088Z,145585.09
2023-05-25T06:24:15.211Z,145616.69
2023-05-25T06:26:42.261Z,145598.44
2023-05-25T06:29:09.325Z,145626.38
2023-05-25T06:31:36.474Z,145716.38
2023-05-25T06:34:03.662Z,145700.53
2023-05-25T06:36:32.131Z,145784.38
2023-05-25T06:38:59.857Z,145801.41
2023-05-25T06:41:27.770Z,145823.31
2023-05-25T06:43:56.458Z,145895.03
2023-05-25T06:46:30.394Z,145926.66
2023-05-25T06:49:00.530Z,145972.88
2023-05-25T06:51:27.986Z,145935.19
2023-05-25T06:53:55.710Z,145935.19
2023-05-25T06:56:23.484Z,145993.53
2023-05-25T06:58:51.025Z,146088.47
2023-05-25T07:01:18.086Z,146022.75
2023-05-25T07:03:45.503Z,146144.41
2023-05-25T07:06:12.932Z,146169.97
2023-05-25T07:08:39.989Z,146178.50
2023-05-25T07:11:10.482Z,146221.09
2023-05-25T07:13:37.557Z,146202.84
2023-05-25T07:16:04.692Z,146159.06
2023-05-25T07:18:31.750Z,146176.06
2023-05-25T07:20:59.318Z,146217.44
2023-05-25T07:23:26.379Z,146228.41
2023-05-25T07:25:53.439Z,146236.94
2023-05-25T07:28:20.461Z,146307.50
2023-05-25T07:30:47.520Z,146261.25
2023-05-25T07:33:14.602Z,146295.31
2023-05-25T07:35:41.822Z,146300.25
2023-05-25T07:38:09.157Z,146365.97
2023-05-25T07:40:36.579Z,146398.81
2023-05-25T07:43:04.479Z,146353.78
2023-05-25T07:45:32.750Z,146348.91
2023-05-25T07:47:59.805Z,146363.50
2023-05-25T07:50:26.987Z,146390.31
2023-05-25T07:52:54.018Z,146430.53
2023-05-25T07:55:21.249Z,146461.00
2023-05-25T07:57:48.381Z,146514.56
2023-05-25T08:00:15.845Z,146548.69
2023-05-25T08:02:44.127Z,146514.56
2023-05-25T08:05:11.431Z,146458.53
2023-05-25T08:07:40.053Z,146546.22
2023-05-25T08:10:09.284Z,146556.00
2023-05-25T08:12:47.865Z,146630.31
2023-05-25T08:15:16.805Z,146654.69
2023-05-25T08:17:44.514Z,146643.72
2023-05-25T08:20:12.379Z,146517.00
2023-05-25T08:22:39.700Z,146599.84
2023-05-25T08:25:07.968Z,146625.44
2023-05-25T08:27:39.188Z,146702.22
2023-05-25T08:30:06.921Z,146712.03
2023-05-25T08:32:34.261Z,146707.09
2023-05-25T08:35:03.569Z,146616.91
2023-05-25T08:37:32.288Z,146659.56
2023-05-25T08:40:02.107Z,146614.47
2023-05-25T08:42:29.632Z,146631.53
2023-05-25T08:44:56.877Z,146731.50
2023-05-25T08:47:24.257Z,146768.06
2023-05-25T08:49:52.830Z,146775.41
2023-05-25T08:52:22.937Z,146821.72
2023-05-25T08:54:53.641Z,146855.84
2023-05-25T08:57:27.403Z,146976.59
2023-05-25T09:00:02.831Z,147036.41
2023-05-25T09:02:45.103Z,146937.53
2023-05-25T09:05:13.735Z,147041.28
2023-05-25T09:07:43.020Z,147043.69
2023-05-25T09:10:14.995Z,147097.38
2023-05-25T09:12:42.843Z,147130.31
2023-05-25T09:15:13.306Z,147194.97
2023-05-25T09:17:41.317Z,147209.63
2023-05-25T09:20:10.762Z,147336.63
2023-05-25T09:22:38.362Z,147314.63
2023-05-25T09:25:07.948Z,147243.81
2023-05-25T09:27:37.319Z,147149.81
2023-05-25T09:30:05.802Z,147009.56
2023-05-25T09:32:33.075Z,147009.56
2023-05-25T09:35:11.715Z,147048.56
2023-05-25T09:37:40.765Z,147046.16
2023-05-25T09:40:10.702Z,147007.09
2023-05-25T09:42:38.549Z,147126.66
2023-05-25T09:45:06.808Z,147121.78
2023-05-25T09:47:36.628Z,147138.84
2023-05-25T09:50:04.095Z,147206.00
2023-05-25T09:52:31.419Z,147094.91
2023-05-25T09:54:59.238Z,147177.88
2023-05-25T09:57:27.177Z,147169.38
2023-05-25T09:59:54.234Z,147234.06
2023-05-25T10:02:21.696Z,147170.59
2023-05-25T10:04:48.835Z,147230.38
2023-05-25T10:07:17.254Z,147252.41
2023-05-25T10:09:46.382Z,147235.25
2023-05-25T10:12:19.295Z,147253.63
2023-05-25T10:14:48.573Z,147275.59
2023-05-25T10:17:22.827Z,147296.31
2023-05-25T10:20:05.295Z,147317.09
2023-05-25T10:22:36.756Z,147282.88
2023-05-25T10:25:42.623Z,147243.81
2023-05-25T10:28:12.604Z,147260.97
2023-05-25T10:30:41.314Z,147208.41
2023-05-25T10:33:08.753Z,147201.13
2023-05-25T10:35:56.248Z,147231.59
2023-05-25T10:38:26.805Z,147301.19
2023-05-25T10:40:55.069Z,147251.16
2023-05-25T10:43:23.503Z,147314.63
2023-05-25T10:45:50.623Z,147319.50
2023-05-25T10:48:17.807Z,147263.38
2023-05-25T10:50:50.678Z,147148.63
2023-05-25T10:53:24.020Z,147312.22
2023-05-25T10:55:53.756Z,147397.66
2023-05-25T10:58:22.884Z,147378.13
2023-05-25T11:01:02.261Z,147424.50
2023-05-25T11:03:44.888Z,147478.25
2023-05-25T11:06:12.278Z,147439.22
2023-05-25T11:08:54.928Z,147422.09
2023-05-25T11:11:42.776Z,147466.03
2023-05-25T11:14:29.654Z,147503.97
2023-05-25T11:17:16.420Z,147483.13
2023-05-25T11:19:50.996Z,147400.09
2023-05-25T11:22:21.155Z,147376.91
2023-05-25T11:24:50.054Z,147478.25
2023-05-25T11:27:24.830Z,147534.47
2023-05-25T11:29:52.802Z,147441.63
2023-05-25T11:32:21.290Z,147529.59
2023-05-25T11:34:48.800Z,147534.47
2023-05-25T11:37:17.253Z,147541.81
2023-05-25T11:39:47.687Z,147456.28
2023-05-25T11:42:15.188Z,147577.25
2023-05-25T11:44:43.404Z,147480.72
2023-05-25T11:47:14.331Z,147530.84
2023-05-25T11:49:44.142Z,147571.13
2023-05-25T11:52:13.002Z,147500.28
2023-05-25T11:54:43.391Z,147590.69
2023-05-25T11:57:27.341Z,147602.88
2023-05-25T11:59:56.186Z,147556.47
2023-05-25T12:02:24.258Z,147486.81
2023-05-25T12:04:56.956Z,147478.25
2023-05-25T12:07:26.083Z,147544.25
2023-05-25T12:10:15.049Z,147623.66
2023-05-25T12:12:42.980Z,147758.13
2023-05-25T12:15:12.128Z,147703.06
2023-05-25T12:17:44.082Z,147613.91
2023-05-25T12:20:12.884Z,147545.50
2023-05-25T12:22:40.709Z,147546.69
2023-05-25T12:25:10.273Z,147541.81
2023-05-25T12:27:38.120Z,147519.81
2023-05-25T12:30:06.200Z,147579.69
2023-05-25T12:32:33.421Z,147528.38
2023-05-25T12:35:05.281Z,147612.66
2023-05-25T12:37:33.290Z,147604.13
2023-05-25T12:40:00.628Z,147596.78
2023-05-25T12:42:27.839Z,147612.66
2023-05-25T12:45:01.633Z,147644.41
2023-05-25T12:47:30.241Z,147635.84
2023-05-25T12:50:14.747Z,147609.03
2023-05-25T12:52:44.191Z,147632.22
2023-05-25T12:55:25.990Z,147568.69
2023-05-25T12:57:54.711Z,147610.22
2023-05-25T13:00:27.503Z,147422.09
2023-05-25T13:02:54.888Z,147590.69
2023-05-25T13:05:26.397Z,147627.34
2023-05-25T13:07:56.386Z,147598.00
2023-05-25T13:10:24.463Z,147648.09
2023-05-25T13:12:53.491Z,147456.28
2023-05-25T13:15:21.893Z,147496.63
2023-05-25T13:17:50.746Z,147485.59
2023-05-25T13:20:23.488Z,147533.25
2023-05-25T13:22:52.378Z,147517.41
2023-05-25T13:25:19.735Z,147491.75
2023-05-25T13:27:49.474Z,147646.88
2023-05-25T13:30:17.130Z,147428.19
2023-05-25T13:32:44.550Z,147501.50
2023-05-25T13:35:18.353Z,147523.50
2023-05-25T13:37:46.263Z,147546.69
2023-05-25T13:40:14.710Z,147563.81
2023-05-25T13:42:41.823Z,147544.25
2023-05-25T13:45:09.518Z,147517.41
2023-05-25T13:47:36.895Z,147527.16
2023-05-25T13:50:04.602Z,147583.34
2023-05-25T13:52:31.690Z,147556.47
2023-05-25T13:54:58.716Z,147626.09
2023-05-25T13:57:25.930Z,147661.53
2023-05-25T13:59:52.986Z,147583.34
2023-05-25T14:02:20.127Z,147671.31
2023-05-25T14:04:47.277Z,147644.41
2023-05-25T14:07:14.319Z,147618.78
2023-05-25T14:09:41.535Z,147578.47
2023-05-25T14:12:08.681Z,147536.94
2023-05-25T14:14:36.780Z,147514.94
2023-05-25T14:17:03.994Z,147571.13
2023-05-25T14:19:31.292Z,147505.19
2023-05-25T14:24:28.415Z,147571.13
2023-05-25T14:26:58.257Z,147671.31
2023-05-25T14:29:25.438Z,147620.00
2023-05-25T14:31:52.820Z,147591.91
2023-05-25T14:34:20.058Z,147576.00
2023-05-25T14:36:47.085Z,147580.88
2023-05-25T14:39:16.464Z,147558.94
2023-05-25T14:41:44.448Z,147732.47
2023-05-25T14:44:11.565Z,147667.63
2023-05-25T14:46:38.746Z,147710.44
2023-05-25T14:49:05.809Z,147701.88
2023-05-25T14:51:32.883Z,147731.22
2023-05-25T14:54:03.354Z,147737.38
2023-05-25T14:56:30.600Z,147567.50
2023-05-25T14:58:57.643Z,147710.44
2023-05-25T15:01:25.579Z,147678.66
2023-05-25T15:03:53.028Z,147633.44
2023-05-25T15:06:20.395Z,147830.25
2023-05-25T15:08:47.443Z,147866.91
2023-05-25T15:11:14.493Z,148067.50
2023-05-25T15:13:41.599Z,148131.06
2023-05-25T15:16:12.472Z,148378.34
2023-05-25T15:18:39.642Z,148544.94
2023-05-25T15:21:06.740Z,148664.97
2023-05-25T15:23:33.851Z,148634.31
2023-05-25T15:26:04.750Z,148834.03
2023-05-25T15:28:31.918Z,148756.88
2023-05-25T15:31:01.720Z,148870.78
2023-05-25T15:33:49.539Z,148901.44
2023-05-25T15:36:19.034Z,148897.75
2023-05-25T15:38:49.076Z,148688.22
2023-05-25T15:41:17.399Z,148879.38
2023-05-25T15:43:54.240Z,148929.69
2023-05-25T15:46:21.354Z,149060.88
2023-05-25T15:48:48.414Z,148965.25
2023-05-25T15:51:15.718Z,149285.38
2023-05-25T15:53:42.822Z,149223.97
2023-05-25T15:56:10.012Z,149037.56
2023-05-25T15:58:37.036Z,149392.13
2023-05-25T16:01:04.355Z,149171.28
2023-05-25T16:03:31.721Z,149433.88
2023-05-25T16:05:58.839Z,149197.00
2023-05-25T16:08:25.865Z,149080.50
2023-05-25T16:10:52.903Z,148834.03
2023-05-25T16:13:19.971Z,148863.47
2023-05-25T16:15:47.232Z,149189.66
2023-05-25T16:18:14.613Z,149399.44
2023-05-25T16:20:41.711Z,148870.78
2023-05-25T16:23:08.785Z,148542.47
2023-05-25T16:25:35.903Z,149206.84
2023-05-25T16:28:03.068Z,149374.91
2023-05-25T16:30:30.355Z,149323.41
2023-05-25T16:32:57.439Z,149236.25
2023-05-25T16:35:24.494Z,148951.75
2023-05-25T16:37:51.533Z,149108.72
2023-05-25T16:40:18.562Z,149091.53
2023-05-25T16:42:45.748Z,148924.78
2023-05-25T16:45:12.932Z,149223.97
2023-05-25T16:47:40.002Z,149363.91
2023-05-25T16:50:07.983Z,149063.28
2023-05-25T16:52:35.640Z,149246.06
2023-05-25T16:55:03.264Z,149248.53
2023-05-25T16:57:30.530Z,149003.22
2023-05-25T16:59:57.601Z,148829.13
2023-05-25T17:02:24.997Z,149125.88
2023-05-25T17:04:52.105Z,149228.88
2023-05-25T17:07:19.177Z,149054.69
2023-05-25T17:09:46.233Z,149231.34
2023-05-25T17:12:13.296Z,149363.91
2023-05-25T17:14:40.430Z,149027.78
2023-05-25T17:17:07.528Z,149134.47
2023-05-25T17:19:34.751Z,149322.19
2023-05-25T17:22:01.786Z,149452.28
2023-05-25T17:24:28.863Z,149457.19
2023-05-25T17:26:56.039Z,149231.34
2023-05-25T17:29:23.126Z,149329.53
2023-05-25T17:31:50.388Z,149177.38
2023-05-25T17:34:17.618Z,149263.31
2023-05-25T17:36:44.809Z,149233.78
2023-05-25T17:39:11.871Z,149268.19
2023-05-25T17:41:38.968Z,149232.56
2023-05-25T17:44:06.132Z,149170.06
2023-05-25T17:46:33.185Z,149128.31
2023-05-25T17:49:00.510Z,149083.00
2023-05-25T17:51:27.577Z,148797.28
2023-05-25T17:53:54.628Z,148956.66
2023-05-25T17:56:22.190Z,149005.69
2023-05-25T17:58:49.350Z,148598.78
2023-05-25T18:01:16.827Z,147915.84
2023-05-25T18:03:44.121Z,147727.53
2023-05-25T18:06:11.259Z,147543.03
2023-05-25T18:08:38.271Z,147600.47
2023-05-25T18:11:05.641Z,147401.31
2023-05-25T18:13:32.820Z,147343.97
2023-05-25T18:15:59.929Z,147300.00
2023-05-25T18:18:27.182Z,147270.72
2023-05-25T18:20:54.255Z,147243.81
2023-05-25T18:23:22.374Z,147033.94
2023-05-25T18:25:49.547Z,147058.31
2023-05-25T18:28:16.747Z,147026.59
2023-05-25T18:30:43.910Z,147046.16
2023-05-25T18:33:11.111Z,147033.94
2023-05-25T18:35:38.680Z,147086.38
2023-05-25T18:38:06.586Z,147025.41
2023-05-25T18:40:33.698Z,146990.00
2023-05-25T18:43:00.849Z,146892.41
2023-05-25T18:45:27.910Z,146904.63
2023-05-25T18:47:55.059Z,146853.44
2023-05-25T18:50:22.137Z,146908.28
2023-05-25T18:52:51.273Z,146887.53
2023-05-25T18:55:18.999Z,146794.91
2023-05-25T18:57:46.687Z,146830.25
2023-05-25T19:00:14.412Z,146830.25
2023-05-25T19:02:41.785Z,146749.78
2023-05-25T19:05:11.466Z,146702.22
2023-05-25T19:07:54.675Z,146685.16
2023-05-25T19:10:25.350Z,146765.63
2023-05-25T19:12:52.476Z,146670.53
2023-05-25T19:15:19.601Z,146693.69
2023-05-25T19:17:47.043Z,146672.97
2023-05-25T19:20:14.505Z,146597.44
2023-05-25T19:22:42.516Z,146537.75
2023-05-25T19:25:09.745Z,146519.47
2023-05-25T19:27:36.844Z,146530.41
2023-05-25T19:30:04.613Z,146495.09
2023-05-25T19:32:31.689Z,146504.81
2023-05-25T19:34:58.798Z,146486.56
2023-05-25T19:37:26.477Z,146487.81
2023-05-25T19:39:53.533Z,146358.63
2023-05-25T19:42:20.770Z,146361.09
2023-05-25T19:44:47.803Z,146361.09
2023-05-25T19:47:14.926Z,146408.56
2023-05-25T19:49:42.745Z,146390.31
2023-05-25T19:52:09.815Z,146351.34
2023-05-25T19:54:38.583Z,146375.69
2023-05-25T19:57:06.636Z,146367.16
2023-05-25T19:59:33.816Z,146317.25
2023-05-25T20:02:00.921Z,146358.63
2023-05-25T20:04:28.005Z,146295.31
2023-05-25T20:06:55.102Z,146307.50
2023-05-25T20:09:30.465Z,146227.22
2023-05-25T20:11:58.516Z,146234.47
2023-05-25T20:14:26.276Z,146305.09
2023-05-25T20:16:55.682Z,146280.72
2023-05-25T20:19:25.534Z,146197.97
2023-05-25T20:21:53.318Z,146253.94
2023-05-25T20:24:21.879Z,146241.81
2023-05-25T20:26:49.084Z,146193.09
2023-05-25T20:29:16.120Z,146200.44
2023-05-25T20:31:43.175Z,146179.72
2023-05-25T20:34:10.235Z,146123.75
2023-05-25T20:36:38.061Z,146139.56
2023-05-25T20:39:05.504Z,146171.19
2023-05-25T20:41:32.582Z,146138.34
2023-05-25T20:43:59.677Z,146082.38
2023-05-25T20:46:26.734Z,146095.78
2023-05-25T20:48:54.112Z,146098.19
2023-05-25T20:51:21.775Z,146112.78
2023-05-25T20:53:48.905Z,146055.56
2023-05-25T20:56:16.055Z,146071.38
2023-05-25T20:58:43.365Z,146088.47
2023-05-25T21:01:10.521Z,146059.22
2023-05-25T21:03:37.833Z,146022.75
2023-05-25T21:06:04.995Z,145983.81
2023-05-25T21:08:33.235Z,146019.09
2023-05-25T21:11:00.273Z,145972.88
2023-05-25T21:13:27.457Z,145941.25
2023-05-25T21:15:54.529Z,145980.13
2023-05-25T21:18:21.618Z,146003.25
2023-05-25T21:20:49.059Z,145949.78
2023-05-25T21:23:16.230Z,145994.78
2023-05-25T21:25:43.507Z,145975.28
2023-05-25T21:28:10.963Z,145942.44
2023-05-25T21:30:38.004Z,145854.91
2023-05-25T21:33:13.447Z,145916.94
2023-05-25T21:35:40.648Z,145891.38
2023-05-25T21:38:08.694Z,145895.03
2023-05-25T21:40:38.622Z,145848.84
2023-05-25T21:43:06.483Z,145820.84
2023-05-25T21:45:33.557Z,145816.00
2023-05-25T21:48:00.673Z,145784.38
2023-05-25T21:50:28.472Z,145797.75
2023-05-25T21:52:55.534Z,145695.63
2023-05-25T21:55:22.759Z,145768.59
2023-05-25T21:57:49.770Z,145761.28
2023-05-25T22:00:17.184Z,145745.50
2023-05-25T22:02:44.383Z,145709.06
2023-05-25T22:05:11.509Z,145682.25
2023-05-25T22:07:38.615Z,145638.56
2023-05-25T22:10:06.717Z,145660.38
2023-05-25T22:12:33.751Z,145620.31
2023-05-25T22:15:00.871Z,145711.50
2023-05-25T22:17:28.001Z,145699.34
2023-05-25T22:20:06.463Z,145639.75
2023-05-25T22:22:34.977Z,145661.63
2023-05-25T22:25:02.005Z,145659.19
2023-05-25T22:27:29.082Z,145572.91
2023-05-25T22:29:56.105Z,145616.69
2023-05-25T22:32:23.411Z,145648.28
2023-05-25T22:34:50.554Z,145587.50
2023-05-25T22:37:17.746Z,145498.84
2023-05-25T22:39:44.795Z,145545.00
2023-05-25T22:42:11.978Z,145525.56
2023-05-25T22:44:39.064Z,145551.06
2023-05-25T22:47:06.522Z,145541.34
2023-05-25T22:49:41.184Z,145507.34
2023-05-25T22:52:11.322Z,145517.06
2023-05-25T22:54:38.526Z,145502.50
2023-05-25T22:57:06.328Z,145463.63
2023-05-25T22:59:33.434Z,145453.91
2023-05-25T23:02:00.688Z,145487.88
2023-05-25T23:04:27.847Z,145457.56
2023-05-25T23:06:54.909Z,145376.19
2023-05-25T23:09:21.947Z,145351.94
2023-05-25T23:11:49.073Z,145410.16
2023-05-25T23:14:16.104Z,145451.44
2023-05-25T23:16:44.305Z,145438.13
2023-05-25T23:19:11.475Z,145430.84
2023-05-25T23:21:38.548Z,145384.69
2023-05-25T23:24:06.059Z,145354.34
2023-05-25T23:26:33.117Z,145344.63
2023-05-25T23:29:00.200Z,145366.50
2023-05-25T23:31:27.412Z,145316.72
2023-05-25T23:33:54.521Z,145342.19
2023-05-25T23:36:21.608Z,145340.97
2023-05-25T23:38:48.632Z,145344.63
2023-05-25T23:41:16.483Z,145300.91
2023-05-25T23:43:43.585Z,145268.16
2023-05-25T23:46:10.719Z,145211.09
2023-05-25T23:48:37.808Z,145298.50
2023-05-25T23:51:07.381Z,145262.09
2023-05-25T23:53:34.393Z,145224.44
2023-05-25T23:56:01.458Z,145283.97
2023-05-25T23:58:28.586Z,145247.50
